sensor_id;sensor_type;location;lat;lon;timestamp;P1;durP1;ratioP1;P2;durP2;ratioP2
3943;SDS011;1986;52.546;13.428;2023-01-08T00:01:26;9.60;;;9.30;;
3943;SDS011;1986;52.546;13.428;2023-01-08T00:03:53;12.73;;;11.90;;
3943;SDS011;1986;52.546;13.428;2023-01-08T00:06:20;11.83;;;11.13;;
3943;SDS011;1986;52.546;13.428;2023-01-08T00:08:47;9.70;;;9.40;;
3943;SDS011;1986;52.546;13.428;2023-01-08T00:11:14;11.23;;;10.53;;
3943;SDS011;1986;52.546;13.428;2023-01-08T00:13:42;11.33;;;10.27;;
3943;SDS011;1986;52.546;13.428;2023-01-08T00:16:11;9.90;;;9.53;;
3943;SDS011;1986;52.546;13.428;2023-01-08T00:18:39;9.90;;;9.60;;
3943;SDS011;1986;52.546;13.428;2023-01-08T00:21:06;9.47;;;9.10;;
3943;SDS011;1986;52.546;13.428;2023-01-08T00:23:33;10.83;;;10.37;;
3943;SDS011;1986;52.546;13.428;2023-01-08T00:26:09;11.20;;;10.60;;
3943;SDS011;1986;52.546;13.428;2023-01-08T00:28:36;10.37;;;10.00;;
3943;SDS011;1986;52.546;13.428;2023-01-08T00:31:07;9.20;;;9.00;;
3943;SDS011;1986;52.546;13.428;2023-01-08T00:33:38;12.90;;;12.27;;
3943;SDS011;1986;52.546;13.428;2023-01-08T00:36:08;13.13;;;10.60;;
3943;SDS011;1986;52.546;13.428;2023-01-08T00:38:36;9.00;;;8.80;;
3943;SDS011;1986;52.546;13.428;2023-01-08T00:41:03;9.10;;;8.90;;
3943;SDS011;1986;52.546;13.428;2023-01-08T00:43:31;8.80;;;8.60;;
3943;SDS011;1986;52.546;13.428;2023-01-08T00:46:02;9.10;;;8.90;;
3943;SDS011;1986;52.546;13.428;2023-01-08T00:48:29;9.83;;;9.27;;
3943;SDS011;1986;52.546;13.428;2023-01-08T00:51:04;9.20;;;8.90;;
3943;SDS011;1986;52.546;13.428;2023-01-08T00:53:33;9.83;;;9.37;;
3943;SDS011;1986;52.546;13.428;2023-01-08T00:56:02;8.67;;;8.47;;
3943;SDS011;1986;52.546;13.428;2023-01-08T00:58:31;14.03;;;9.30;;
3943;SDS011;1986;52.546;13.428;2023-01-08T01:00:58;9.87;;;9.30;;
3943;SDS011;1986;52.546;13.428;2023-01-08T01:03:25;10.80;;;9.97;;
3943;SDS011;1986;52.546;13.428;2023-01-08T01:05:58;9.47;;;9.17;;
3943;SDS011;1986;52.546;13.428;2023-01-08T01:08:27;11.43;;;10.67;;
3943;SDS011;1986;52.546;13.428;2023-01-08T01:10:54;10.43;;;9.63;;
3943;SDS011;1986;52.546;13.428;2023-01-08T01:13:21;8.17;;;7.97;;
3943;SDS011;1986;52.546;13.428;2023-01-08T01:15:55;8.40;;;8.20;;
3943;SDS011;1986;52.546;13.428;2023-01-08T01:18:23;9.70;;;9.30;;
3943;SDS011;1986;52.546;13.428;2023-01-08T01:20:50;9.10;;;8.70;;
3943;SDS011;1986;52.546;13.428;2023-01-08T01:23:17;12.37;;;11.27;;
3943;SDS011;1986;52.546;13.428;2023-01-08T01:25:45;7.70;;;7.60;;
3943;SDS011;1986;52.546;13.428;2023-01-08T01:28:12;9.40;;;8.90;;
3943;SDS011;1986;52.546;13.428;2023-01-08T01:30:42;9.90;;;9.60;;
3943;SDS011;1986;52.546;13.428;2023-01-08T01:33:08;10.00;;;9.40;;
3943;SDS011;1986;52.546;13.428;2023-01-08T01:35:35;10.90;;;10.47;;
3943;SDS011;1986;52.546;13.428;2023-01-08T01:38:02;10.53;;;9.70;;
3943;SDS011;1986;52.546;13.428;2023-01-08T01:40:29;8.33;;;8.03;;
3943;SDS011;1986;52.546;13.428;2023-01-08T01:42:58;7.77;;;7.67;;
3943;SDS011;1986;52.546;13.428;2023-01-08T01:45:25;9.70;;;9.10;;
3943;SDS011;1986;52.546;13.428;2023-01-08T01:47:54;8.03;;;7.83;;
3943;SDS011;1986;52.546;13.428;2023-01-08T01:50:26;7.97;;;7.77;;
3943;SDS011;1986;52.546;13.428;2023-01-08T01:52:56;9.47;;;8.93;;
3943;SDS011;1986;52.546;13.428;2023-01-08T01:55:28;10.80;;;9.80;;
3943;SDS011;1986;52.546;13.428;2023-01-08T01:57:58;7.40;;;7.30;;
3943;SDS011;1986;52.546;13.428;2023-01-08T02:00:30;9.43;;;9.00;;
3943;SDS011;1986;52.546;13.428;2023-01-08T02:02:58;9.80;;;9.30;;
3943;SDS011;1986;52.546;13.428;2023-01-08T02:05:27;7.30;;;7.20;;
3943;SDS011;1986;52.546;13.428;2023-01-08T02:08:01;10.00;;;9.27;;
3943;SDS011;1986;52.546;13.428;2023-01-08T02:10:34;8.07;;;7.77;;
3943;SDS011;1986;52.546;13.428;2023-01-08T02:13:11;9.13;;;8.63;;
3943;SDS011;1986;52.546;13.428;2023-01-08T02:15:42;7.47;;;7.27;;
3943;SDS011;1986;52.546;13.428;2023-01-08T02:18:17;7.10;;;6.90;;
3943;SDS011;1986;52.546;13.428;2023-01-08T02:20:46;7.10;;;7.00;;
3943;SDS011;1986;52.546;13.428;2023-01-08T02:23:25;8.23;;;7.93;;
3943;SDS011;1986;52.546;13.428;2023-01-08T02:26:08;8.77;;;8.13;;
3943;SDS011;1986;52.546;13.428;2023-01-08T02:28:39;7.60;;;7.30;;
3943;SDS011;1986;52.546;13.428;2023-01-08T02:31:08;9.27;;;8.53;;
3943;SDS011;1986;52.546;13.428;2023-01-08T02:33:37;7.70;;;7.40;;
3943;SDS011;1986;52.546;13.428;2023-01-08T02:36:21;8.00;;;7.70;;
3943;SDS011;1986;52.546;13.428;2023-01-08T02:39:00;7.50;;;7.10;;
3943;SDS011;1986;52.546;13.428;2023-01-08T02:41:40;6.80;;;6.60;;
3943;SDS011;1986;52.546;13.428;2023-01-08T02:44:19;7.70;;;7.30;;
3943;SDS011;1986;52.546;13.428;2023-01-08T02:46:51;6.37;;;6.27;;
3943;SDS011;1986;52.546;13.428;2023-01-08T02:49:22;5.93;;;5.83;;
3943;SDS011;1986;52.546;13.428;2023-01-08T02:51:54;6.07;;;5.90;;
3943;SDS011;1986;52.546;13.428;2023-01-08T02:54:23;7.57;;;7.27;;
3943;SDS011;1986;52.546;13.428;2023-01-08T02:56:55;8.10;;;7.40;;
3943;SDS011;1986;52.546;13.428;2023-01-08T02:59:26;5.97;;;5.67;;
3943;SDS011;1986;52.546;13.428;2023-01-08T03:01:56;7.13;;;5.97;;
3943;SDS011;1986;52.546;13.428;2023-01-08T03:04:23;5.30;;;5.20;;
3943;SDS011;1986;52.546;13.428;2023-01-08T03:06:51;7.33;;;7.07;;
3943;SDS011;1986;52.546;13.428;2023-01-08T03:09:21;5.10;;;5.00;;
3943;SDS011;1986;52.546;13.428;2023-01-08T03:11:50;5.90;;;5.50;;
3943;SDS011;1986;52.546;13.428;2023-01-08T03:14:24;8.23;;;6.63;;
3943;SDS011;1986;52.546;13.428;2023-01-08T03:16:56;6.70;;;6.27;;
3943;SDS011;1986;52.546;13.428;2023-01-08T03:19:27;5.40;;;5.20;;
3943;SDS011;1986;52.546;13.428;2023-01-08T03:21:57;5.97;;;5.67;;
3943;SDS011;1986;52.546;13.428;2023-01-08T03:24:27;4.70;;;4.60;;
3943;SDS011;1986;52.546;13.428;2023-01-08T03:26:57;4.80;;;4.70;;
3943;SDS011;1986;52.546;13.428;2023-01-08T03:29:29;5.40;;;5.20;;
3943;SDS011;1986;52.546;13.428;2023-01-08T03:31:59;7.03;;;6.53;;
3943;SDS011;1986;52.546;13.428;2023-01-08T03:34:30;6.53;;;5.80;;
3943;SDS011;1986;52.546;13.428;2023-01-08T03:36:58;5.73;;;5.53;;
3943;SDS011;1986;52.546;13.428;2023-01-08T03:39:30;7.90;;;7.23;;
3943;SDS011;1986;52.546;13.428;2023-01-08T03:42:05;4.50;;;4.40;;
3943;SDS011;1986;52.546;13.428;2023-01-08T03:44:36;6.07;;;5.60;;
3943;SDS011;1986;52.546;13.428;2023-01-08T03:47:03;5.00;;;4.90;;
3943;SDS011;1986;52.546;13.428;2023-01-08T03:49:32;6.73;;;6.53;;
3943;SDS011;1986;52.546;13.428;2023-01-08T03:52:01;4.80;;;4.70;;
3943;SDS011;1986;52.546;13.428;2023-01-08T03:54:29;6.43;;;6.23;;
3943;SDS011;1986;52.546;13.428;2023-01-08T03:56:57;11.60;;;9.20;;
3943;SDS011;1986;52.546;13.428;2023-01-08T03:59:24;5.17;;;5.07;;
3943;SDS011;1986;52.546;13.428;2023-01-08T04:01:53;6.13;;;5.83;;
3943;SDS011;1986;52.546;13.428;2023-01-08T04:04:20;5.00;;;4.90;;
3943;SDS011;1986;52.546;13.428;2023-01-08T04:06:47;5.17;;;5.07;;
3943;SDS011;1986;52.546;13.428;2023-01-08T04:09:14;19.97;;;7.43;;
3943;SDS011;1986;52.546;13.428;2023-01-08T04:11:41;5.00;;;4.90;;
3943;SDS011;1986;52.546;13.428;2023-01-08T04:14:08;6.33;;;5.67;;
3943;SDS011;1986;52.546;13.428;2023-01-08T04:16:36;5.23;;;4.93;;
3943;SDS011;1986;52.546;13.428;2023-01-08T04:19:04;4.80;;;4.70;;
3943;SDS011;1986;52.546;13.428;2023-01-08T04:21:32;5.40;;;5.07;;
3943;SDS011;1986;52.546;13.428;2023-01-08T04:23:59;5.07;;;4.97;;
3943;SDS011;1986;52.546;13.428;2023-01-08T04:26:26;5.23;;;5.03;;
3943;SDS011;1986;52.546;13.428;2023-01-08T04:28:53;4.30;;;4.20;;
3943;SDS011;1986;52.546;13.428;2023-01-08T04:31:19;5.40;;;5.10;;
3943;SDS011;1986;52.546;13.428;2023-01-08T04:33:46;4.00;;;4.00;;
3943;SDS011;1986;52.546;13.428;2023-01-08T04:36:15;4.63;;;4.53;;
3943;SDS011;1986;52.546;13.428;2023-01-08T04:38:42;4.60;;;4.50;;
3943;SDS011;1986;52.546;13.428;2023-01-08T04:41:09;4.97;;;4.77;;
3943;SDS011;1986;52.546;13.428;2023-01-08T04:43:36;4.70;;;4.60;;
3943;SDS011;1986;52.546;13.428;2023-01-08T04:46:03;5.33;;;5.03;;
3943;SDS011;1986;52.546;13.428;2023-01-08T04:48:31;4.23;;;4.13;;
3943;SDS011;1986;52.546;13.428;2023-01-08T04:50:59;4.83;;;4.60;;
3943;SDS011;1986;52.546;13.428;2023-01-08T04:53:28;4.83;;;4.67;;
3943;SDS011;1986;52.546;13.428;2023-01-08T04:55:56;4.70;;;4.60;;
3943;SDS011;1986;52.546;13.428;2023-01-08T04:58:28;6.03;;;5.73;;
3943;SDS011;1986;52.546;13.428;2023-01-08T05:00:55;3.80;;;3.80;;
3943;SDS011;1986;52.546;13.428;2023-01-08T05:03:22;4.43;;;4.33;;
3943;SDS011;1986;52.546;13.428;2023-01-08T05:05:49;4.50;;;4.40;;
3943;SDS011;1986;52.546;13.428;2023-01-08T05:08:16;4.90;;;4.80;;
3943;SDS011;1986;52.546;13.428;2023-01-08T05:10:44;4.90;;;4.80;;
3943;SDS011;1986;52.546;13.428;2023-01-08T05:13:11;4.93;;;4.83;;
3943;SDS011;1986;52.546;13.428;2023-01-08T05:15:38;6.30;;;6.10;;
3943;SDS011;1986;52.546;13.428;2023-01-08T05:18:05;4.97;;;4.87;;
3943;SDS011;1986;52.546;13.428;2023-01-08T05:20:32;5.90;;;5.80;;
3943;SDS011;1986;52.546;13.428;2023-01-08T05:23:00;6.30;;;6.10;;
3943;SDS011;1986;52.546;13.428;2023-01-08T05:25:27;5.30;;;5.20;;
3943;SDS011;1986;52.546;13.428;2023-01-08T05:27:55;6.83;;;6.73;;
3943;SDS011;1986;52.546;13.428;2023-01-08T05:30:22;5.30;;;5.20;;
3943;SDS011;1986;52.546;13.428;2023-01-08T05:32:49;19.03;;;6.23;;
3943;SDS011;1986;52.546;13.428;2023-01-08T05:35:16;5.30;;;5.20;;
3943;SDS011;1986;52.546;13.428;2023-01-08T05:37:43;7.47;;;7.13;;
3943;SDS011;1986;52.546;13.428;2023-01-08T05:40:11;5.40;;;5.30;;
3943;SDS011;1986;52.546;13.428;2023-01-08T05:42:38;5.80;;;5.70;;
3943;SDS011;1986;52.546;13.428;2023-01-08T05:45:07;5.60;;;5.50;;
3943;SDS011;1986;52.546;13.428;2023-01-08T05:47:34;7.30;;;6.87;;
3943;SDS011;1986;52.546;13.428;2023-01-08T05:50:03;6.00;;;5.80;;
3943;SDS011;1986;52.546;13.428;2023-01-08T05:52:31;6.47;;;6.17;;
3943;SDS011;1986;52.546;13.428;2023-01-08T05:54:58;7.27;;;7.07;;
3943;SDS011;1986;52.546;13.428;2023-01-08T05:57:26;5.60;;;5.50;;
3943;SDS011;1986;52.546;13.428;2023-01-08T05:59:53;6.40;;;6.30;;
3943;SDS011;1986;52.546;13.428;2023-01-08T06:02:21;6.10;;;6.00;;
3943;SDS011;1986;52.546;13.428;2023-01-08T06:04:48;8.30;;;7.90;;
3943;SDS011;1986;52.546;13.428;2023-01-08T06:07:16;7.47;;;7.33;;
3943;SDS011;1986;52.546;13.428;2023-01-08T06:09:43;7.60;;;7.40;;
3943;SDS011;1986;52.546;13.428;2023-01-08T06:12:10;7.40;;;7.20;;
3943;SDS011;1986;52.546;13.428;2023-01-08T06:14:37;6.83;;;6.73;;
3943;SDS011;1986;52.546;13.428;2023-01-08T06:17:04;8.23;;;7.73;;
3943;SDS011;1986;52.546;13.428;2023-01-08T06:19:35;8.97;;;8.70;;
3943;SDS011;1986;52.546;13.428;2023-01-08T06:22:03;8.43;;;8.10;;
3943;SDS011;1986;52.546;13.428;2023-01-08T06:24:32;9.13;;;8.83;;
3943;SDS011;1986;52.546;13.428;2023-01-08T06:27:02;7.93;;;7.73;;
3943;SDS011;1986;52.546;13.428;2023-01-08T06:29:31;8.03;;;7.90;;
3943;SDS011;1986;52.546;13.428;2023-01-08T06:31:58;7.53;;;7.43;;
3943;SDS011;1986;52.546;13.428;2023-01-08T06:34:25;7.73;;;7.63;;
3943;SDS011;1986;52.546;13.428;2023-01-08T06:36:53;8.40;;;8.30;;
3943;SDS011;1986;52.546;13.428;2023-01-08T06:39:20;10.00;;;9.70;;
3943;SDS011;1986;52.546;13.428;2023-01-08T06:41:47;8.87;;;8.67;;
3943;SDS011;1986;52.546;13.428;2023-01-08T06:44:14;7.90;;;7.80;;
3943;SDS011;1986;52.546;13.428;2023-01-08T06:46:41;10.97;;;10.47;;
3943;SDS011;1986;52.546;13.428;2023-01-08T06:49:10;9.27;;;8.97;;
3943;SDS011;1986;52.546;13.428;2023-01-08T06:51:38;10.17;;;9.80;;
3943;SDS011;1986;52.546;13.428;2023-01-08T06:54:07;7.87;;;7.77;;
3943;SDS011;1986;52.546;13.428;2023-01-08T06:56:34;9.07;;;8.87;;
3943;SDS011;1986;52.546;13.428;2023-01-08T06:59:01;10.43;;;9.97;;
3943;SDS011;1986;52.546;13.428;2023-01-08T07:01:28;8.20;;;8.10;;
3943;SDS011;1986;52.546;13.428;2023-01-08T07:03:55;9.83;;;9.23;;
3943;SDS011;1986;52.546;13.428;2023-01-08T07:06:22;9.30;;;9.10;;
3943;SDS011;1986;52.546;13.428;2023-01-08T07:08:49;9.10;;;8.70;;
3943;SDS011;1986;52.546;13.428;2023-01-08T07:11:17;8.97;;;8.67;;
3943;SDS011;1986;52.546;13.428;2023-01-08T07:13:44;8.50;;;8.40;;
3943;SDS011;1986;52.546;13.428;2023-01-08T07:16:12;9.17;;;8.93;;
3943;SDS011;1986;52.546;13.428;2023-01-08T07:18:39;9.63;;;9.43;;
3943;SDS011;1986;52.546;13.428;2023-01-08T07:21:07;9.40;;;9.20;;
3943;SDS011;1986;52.546;13.428;2023-01-08T07:23:34;12.77;;;12.03;;
3943;SDS011;1986;52.546;13.428;2023-01-08T07:26:03;9.57;;;9.37;;
3943;SDS011;1986;52.546;13.428;2023-01-08T07:28:33;10.97;;;10.57;;
3943;SDS011;1986;52.546;13.428;2023-01-08T07:31:03;10.43;;;10.03;;
3943;SDS011;1986;52.546;13.428;2023-01-08T07:33:31;9.80;;;9.23;;
3943;SDS011;1986;52.546;13.428;2023-01-08T07:35:58;8.97;;;8.77;;
3943;SDS011;1986;52.546;13.428;2023-01-08T07:38:26;9.00;;;8.80;;
3943;SDS011;1986;52.546;13.428;2023-01-08T07:40:53;8.30;;;8.20;;
3943;SDS011;1986;52.546;13.428;2023-01-08T07:43:22;8.90;;;8.70;;
3943;SDS011;1986;52.546;13.428;2023-01-08T07:45:51;9.97;;;9.70;;
3943;SDS011;1986;52.546;13.428;2023-01-08T07:48:18;8.00;;;7.90;;
3943;SDS011;1986;52.546;13.428;2023-01-08T07:50:46;8.53;;;8.33;;
3943;SDS011;1986;52.546;13.428;2023-01-08T07:53:14;8.60;;;8.40;;
3943;SDS011;1986;52.546;13.428;2023-01-08T07:55:42;8.97;;;8.50;;
3943;SDS011;1986;52.546;13.428;2023-01-08T07:58:09;7.23;;;7.13;;
3943;SDS011;1986;52.546;13.428;2023-01-08T08:00:38;6.80;;;6.70;;
3943;SDS011;1986;52.546;13.428;2023-01-08T08:03:11;7.53;;;7.33;;
3943;SDS011;1986;52.546;13.428;2023-01-08T08:05:38;6.10;;;6.00;;
3943;SDS011;1986;52.546;13.428;2023-01-08T08:08:08;6.70;;;6.50;;
3943;SDS011;1986;52.546;13.428;2023-01-08T08:10:36;6.80;;;6.67;;
3943;SDS011;1986;52.546;13.428;2023-01-08T08:13:04;7.73;;;7.53;;
3943;SDS011;1986;52.546;13.428;2023-01-08T08:15:34;27.83;;;8.30;;
3943;SDS011;1986;52.546;13.428;2023-01-08T08:18:01;6.13;;;5.97;;
3943;SDS011;1986;52.546;13.428;2023-01-08T08:20:30;5.23;;;5.13;;
3943;SDS011;1986;52.546;13.428;2023-01-08T08:22:59;5.20;;;5.10;;
3943;SDS011;1986;52.546;13.428;2023-01-08T08:25:26;6.30;;;6.20;;
3943;SDS011;1986;52.546;13.428;2023-01-08T08:27:56;7.60;;;7.50;;
3943;SDS011;1986;52.546;13.428;2023-01-08T08:30:24;9.40;;;8.73;;
3943;SDS011;1986;52.546;13.428;2023-01-08T08:32:52;12.87;;;11.73;;
3943;SDS011;1986;52.546;13.428;2023-01-08T08:35:19;11.23;;;10.83;;
3943;SDS011;1986;52.546;13.428;2023-01-08T08:37:47;10.23;;;10.03;;
3943;SDS011;1986;52.546;13.428;2023-01-08T08:40:14;9.83;;;9.63;;
3943;SDS011;1986;52.546;13.428;2023-01-08T08:42:41;10.07;;;9.63;;
3943;SDS011;1986;52.546;13.428;2023-01-08T08:45:08;9.73;;;9.53;;
3943;SDS011;1986;52.546;13.428;2023-01-08T08:47:36;10.27;;;9.87;;
3943;SDS011;1986;52.546;13.428;2023-01-08T08:50:04;9.47;;;9.17;;
3943;SDS011;1986;52.546;13.428;2023-01-08T08:52:32;8.77;;;8.23;;
3943;SDS011;1986;52.546;13.428;2023-01-08T08:55:03;6.93;;;6.83;;
3943;SDS011;1986;52.546;13.428;2023-01-08T08:57:31;7.17;;;7.07;;
3943;SDS011;1986;52.546;13.428;2023-01-08T08:59:58;7.83;;;7.43;;
3943;SDS011;1986;52.546;13.428;2023-01-08T09:02:25;7.00;;;6.90;;
3943;SDS011;1986;52.546;13.428;2023-01-08T09:04:52;6.90;;;6.80;;
3943;SDS011;1986;52.546;13.428;2023-01-08T09:07:19;6.30;;;6.17;;
3943;SDS011;1986;52.546;13.428;2023-01-08T09:09:46;4.70;;;4.60;;
3943;SDS011;1986;52.546;13.428;2023-01-08T09:12:15;4.60;;;4.50;;
3943;SDS011;1986;52.546;13.428;2023-01-08T09:14:45;4.40;;;4.30;;
3943;SDS011;1986;52.546;13.428;2023-01-08T09:17:14;9.83;;;9.30;;
3943;SDS011;1986;52.546;13.428;2023-01-08T09:19:42;4.20;;;4.00;;
3943;SDS011;1986;52.546;13.428;2023-01-08T09:22:09;3.93;;;3.90;;
3943;SDS011;1986;52.546;13.428;2023-01-08T09:24:36;3.90;;;3.80;;
3943;SDS011;1986;52.546;13.428;2023-01-08T09:27:04;5.20;;;4.67;;
3943;SDS011;1986;52.546;13.428;2023-01-08T09:29:33;4.73;;;4.53;;
3943;SDS011;1986;52.546;13.428;2023-01-08T09:32:00;3.37;;;3.37;;
3943;SDS011;1986;52.546;13.428;2023-01-08T09:34:28;3.77;;;3.77;;
3943;SDS011;1986;52.546;13.428;2023-01-08T09:36:56;5.57;;;5.23;;
3943;SDS011;1986;52.546;13.428;2023-01-08T09:39:23;4.87;;;4.77;;
3943;SDS011;1986;52.546;13.428;2023-01-08T09:41:50;4.63;;;4.43;;
3943;SDS011;1986;52.546;13.428;2023-01-08T09:44:19;3.57;;;3.57;;
3943;SDS011;1986;52.546;13.428;2023-01-08T09:46:54;4.33;;;4.00;;
3943;SDS011;1986;52.546;13.428;2023-01-08T09:49:22;2.87;;;2.87;;
3943;SDS011;1986;52.546;13.428;2023-01-08T09:51:53;7.33;;;4.83;;
3943;SDS011;1986;52.546;13.428;2023-01-08T09:54:21;10.90;;;5.50;;
3943;SDS011;1986;52.546;13.428;2023-01-08T09:56:51;3.30;;;3.30;;
3943;SDS011;1986;52.546;13.428;2023-01-08T09:59:18;4.10;;;4.00;;
3943;SDS011;1986;52.546;13.428;2023-01-08T10:01:46;4.00;;;3.90;;
3943;SDS011;1986;52.546;13.428;2023-01-08T10:04:16;5.40;;;5.20;;
3943;SDS011;1986;52.546;13.428;2023-01-08T10:06:48;4.10;;;4.00;;
3943;SDS011;1986;52.546;13.428;2023-01-08T10:09:17;4.60;;;4.40;;
3943;SDS011;1986;52.546;13.428;2023-01-08T10:11:49;4.63;;;4.53;;
3943;SDS011;1986;52.546;13.428;2023-01-08T10:14:19;4.60;;;4.50;;
3943;SDS011;1986;52.546;13.428;2023-01-08T10:16:50;4.70;;;4.60;;
3943;SDS011;1986;52.546;13.428;2023-01-08T10:19:21;5.57;;;5.47;;
3943;SDS011;1986;52.546;13.428;2023-01-08T10:21:49;7.00;;;6.90;;
3943;SDS011;1986;52.546;13.428;2023-01-08T10:24:28;7.83;;;7.73;;
3943;SDS011;1986;52.546;13.428;2023-01-08T10:27:05;13.70;;;13.30;;
3943;SDS011;1986;52.546;13.428;2023-01-08T10:29:34;18.20;;;16.47;;
3943;SDS011;1986;52.546;13.428;2023-01-08T10:32:08;15.83;;;15.03;;
3943;SDS011;1986;52.546;13.428;2023-01-08T10:34:42;16.43;;;15.83;;
3943;SDS011;1986;52.546;13.428;2023-01-08T10:37:21;17.67;;;16.87;;
3943;SDS011;1986;52.546;13.428;2023-01-08T10:39:50;18.63;;;17.47;;
3943;SDS011;1986;52.546;13.428;2023-01-08T10:42:20;18.07;;;17.03;;
3943;SDS011;1986;52.546;13.428;2023-01-08T10:44:55;17.63;;;16.57;;
3943;SDS011;1986;52.546;13.428;2023-01-08T10:47:25;14.80;;;14.30;;
3943;SDS011;1986;52.546;13.428;2023-01-08T10:49:56;14.80;;;14.30;;
3943;SDS011;1986;52.546;13.428;2023-01-08T10:52:26;15.40;;;14.70;;
3943;SDS011;1986;52.546;13.428;2023-01-08T10:54:55;16.63;;;16.00;;
3943;SDS011;1986;52.546;13.428;2023-01-08T10:57:23;15.73;;;15.13;;
3943;SDS011;1986;52.546;13.428;2023-01-08T10:59:53;14.30;;;13.80;;
3943;SDS011;1986;52.546;13.428;2023-01-08T11:02:24;13.60;;;13.10;;
3943;SDS011;1986;52.546;13.428;2023-01-08T11:05:00;16.13;;;15.43;;
3943;SDS011;1986;52.546;13.428;2023-01-08T11:07:29;13.50;;;12.90;;
3943;SDS011;1986;52.546;13.428;2023-01-08T11:09:59;14.90;;;14.00;;
3943;SDS011;1986;52.546;13.428;2023-01-08T11:12:32;11.40;;;11.00;;
3943;SDS011;1986;52.546;13.428;2023-01-08T11:15:03;10.80;;;10.60;;
3943;SDS011;1986;52.546;13.428;2023-01-08T11:17:32;13.20;;;12.57;;
3943;SDS011;1986;52.546;13.428;2023-01-08T11:20:08;10.40;;;10.20;;
3943;SDS011;1986;52.546;13.428;2023-01-08T11:22:44;10.87;;;10.50;;
3943;SDS011;1986;52.546;13.428;2023-01-08T11:25:11;10.27;;;10.07;;
3943;SDS011;1986;52.546;13.428;2023-01-08T11:27:41;10.17;;;9.50;;
3943;SDS011;1986;52.546;13.428;2023-01-08T11:30:10;12.40;;;11.60;;
3943;SDS011;1986;52.546;13.428;2023-01-08T11:32:41;9.77;;;9.57;;
3943;SDS011;1986;52.546;13.428;2023-01-08T11:35:16;9.30;;;9.10;;
3943;SDS011;1986;52.546;13.428;2023-01-08T11:37:48;10.53;;;9.93;;
3943;SDS011;1986;52.546;13.428;2023-01-08T11:40:20;8.20;;;8.10;;
3943;SDS011;1986;52.546;13.428;2023-01-08T11:42:59;10.03;;;9.73;;
3943;SDS011;1986;52.546;13.428;2023-01-08T11:45:42;9.00;;;8.80;;
3943;SDS011;1986;52.546;13.428;2023-01-08T11:48:30;10.33;;;9.70;;
3943;SDS011;1986;52.546;13.428;2023-01-08T11:51:21;9.80;;;9.13;;
3943;SDS011;1986;52.546;13.428;2023-01-08T11:54:03;7.77;;;7.67;;
3943;SDS011;1986;52.546;13.428;2023-01-08T11:56:40;8.50;;;7.90;;
3943;SDS011;1986;52.546;13.428;2023-01-08T11:59:20;7.07;;;6.97;;
3943;SDS011;1986;52.546;13.428;2023-01-08T12:01:56;6.10;;;6.00;;
3943;SDS011;1986;52.546;13.428;2023-01-08T12:04:34;7.47;;;7.10;;
3943;SDS011;1986;52.546;13.428;2023-01-08T12:07:21;6.03;;;5.93;;
3943;SDS011;1986;52.546;13.428;2023-01-08T12:09:54;5.93;;;5.60;;
3943;SDS011;1986;52.546;13.428;2023-01-08T12:12:30;6.50;;;6.23;;
3943;SDS011;1986;52.546;13.428;2023-01-08T12:15:12;5.33;;;4.93;;
3943;SDS011;1986;52.546;13.428;2023-01-08T12:20:58;3.60;;;3.50;;
3943;SDS011;1986;52.546;13.428;2023-01-08T12:23:38;11.10;;;4.27;;
3943;SDS011;1986;52.546;13.428;2023-01-08T12:26:19;5.23;;;5.03;;
3943;SDS011;1986;52.546;13.428;2023-01-08T12:34:43;2.37;;;2.37;;
3943;SDS011;1986;52.546;13.428;2023-01-08T12:37:17;3.73;;;3.47;;
3943;SDS011;1986;52.546;13.428;2023-01-08T12:39:51;2.07;;;2.07;;
3943;SDS011;1986;52.546;13.428;2023-01-08T12:42:25;2.30;;;2.30;;
3943;SDS011;1986;52.546;13.428;2023-01-08T12:44:56;3.70;;;3.50;;
3943;SDS011;1986;52.546;13.428;2023-01-08T12:47:26;2.00;;;2.00;;
3943;SDS011;1986;52.546;13.428;2023-01-08T12:50:01;7.80;;;2.33;;
3943;SDS011;1986;52.546;13.428;2023-01-08T12:52:38;3.30;;;2.97;;
3943;SDS011;1986;52.546;13.428;2023-01-08T12:55:20;2.10;;;2.10;;
3943;SDS011;1986;52.546;13.428;2023-01-08T12:57:56;4.87;;;4.20;;
3943;SDS011;1986;52.546;13.428;2023-01-08T13:00:32;3.33;;;2.87;;
3943;SDS011;1986;52.546;13.428;2023-01-08T13:03:04;2.93;;;2.83;;
3943;SDS011;1986;52.546;13.428;2023-01-08T13:05:52;2.27;;;2.27;;
3943;SDS011;1986;52.546;13.428;2023-01-08T13:08:32;4.10;;;3.00;;
3943;SDS011;1986;52.546;13.428;2023-01-08T13:11:03;2.50;;;2.50;;
3943;SDS011;1986;52.546;13.428;2023-01-08T13:13:35;2.40;;;2.33;;
3943;SDS011;1986;52.546;13.428;2023-01-08T13:16:06;2.20;;;2.20;;
3943;SDS011;1986;52.546;13.428;2023-01-08T13:18:49;3.80;;;3.67;;
3943;SDS011;1986;52.546;13.428;2023-01-08T13:24:23;3.13;;;3.13;;
3943;SDS011;1986;52.546;13.428;2023-01-08T13:26:55;4.43;;;4.27;;
3943;SDS011;1986;52.546;13.428;2023-01-08T13:29:46;3.17;;;3.07;;
3943;SDS011;1986;52.546;13.428;2023-01-08T13:32:36;6.57;;;3.23;;
3943;SDS011;1986;52.546;13.428;2023-01-08T13:35:16;3.47;;;3.37;;
3943;SDS011;1986;52.546;13.428;2023-01-08T13:37:49;3.17;;;3.17;;
3943;SDS011;1986;52.546;13.428;2023-01-08T13:40:37;6.97;;;6.77;;
3943;SDS011;1986;52.546;13.428;2023-01-08T13:43:18;7.80;;;7.70;;
3943;SDS011;1986;52.546;13.428;2023-01-08T13:45:53;8.63;;;8.43;;
3943;SDS011;1986;52.546;13.428;2023-01-08T13:48:32;8.57;;;8.27;;
3943;SDS011;1986;52.546;13.428;2023-01-08T13:51:02;9.33;;;9.13;;
3943;SDS011;1986;52.546;13.428;2023-01-08T13:53:30;9.13;;;8.93;;
3943;SDS011;1986;52.546;13.428;2023-01-08T13:55:57;9.17;;;8.77;;
3943;SDS011;1986;52.546;13.428;2023-01-08T13:58:28;9.70;;;9.43;;
3943;SDS011;1986;52.546;13.428;2023-01-08T14:01:01;9.40;;;9.10;;
3943;SDS011;1986;52.546;13.428;2023-01-08T14:03:32;7.10;;;7.00;;
3943;SDS011;1986;52.546;13.428;2023-01-08T14:06:05;8.00;;;7.60;;
3943;SDS011;1986;52.546;13.428;2023-01-08T14:08:33;10.10;;;9.33;;
3943;SDS011;1986;52.546;13.428;2023-01-08T14:11:00;9.33;;;8.83;;
3943;SDS011;1986;52.546;13.428;2023-01-08T14:13:34;6.67;;;6.47;;
3943;SDS011;1986;52.546;13.428;2023-01-08T14:16:03;119.40;;;27.10;;
3943;SDS011;1986;52.546;13.428;2023-01-08T14:18:32;11.03;;;8.40;;
3943;SDS011;1986;52.546;13.428;2023-01-08T14:21:01;8.57;;;8.27;;
3943;SDS011;1986;52.546;13.428;2023-01-08T14:23:30;6.10;;;5.90;;
3943;SDS011;1986;52.546;13.428;2023-01-08T14:26:03;6.17;;;6.07;;
3943;SDS011;1986;52.546;13.428;2023-01-08T14:28:49;5.63;;;5.53;;
3943;SDS011;1986;52.546;13.428;2023-01-08T14:31:24;8.37;;;7.83;;
3943;SDS011;1986;52.546;13.428;2023-01-08T14:33:52;6.97;;;6.67;;
3943;SDS011;1986;52.546;13.428;2023-01-08T14:36:21;6.43;;;6.33;;
3943;SDS011;1986;52.546;13.428;2023-01-08T14:38:50;5.30;;;5.10;;
3943;SDS011;1986;52.546;13.428;2023-01-08T14:42:04;6.67;;;6.33;;
3943;SDS011;1986;52.546;13.428;2023-01-08T14:44:53;6.07;;;5.87;;
3943;SDS011;1986;52.546;13.428;2023-01-08T14:47:23;6.20;;;5.90;;
3943;SDS011;1986;52.546;13.428;2023-01-08T14:49:56;7.93;;;6.07;;
3943;SDS011;1986;52.546;13.428;2023-01-08T14:52:25;6.40;;;6.20;;
3943;SDS011;1986;52.546;13.428;2023-01-08T14:54:56;7.17;;;6.97;;
3943;SDS011;1986;52.546;13.428;2023-01-08T14:57:27;27.70;;;8.97;;
3943;SDS011;1986;52.546;13.428;2023-01-08T14:59:57;6.77;;;6.27;;
3943;SDS011;1986;52.546;13.428;2023-01-08T15:02:27;5.87;;;5.67;;
3943;SDS011;1986;52.546;13.428;2023-01-08T15:05:02;6.67;;;6.57;;
3943;SDS011;1986;52.546;13.428;2023-01-08T15:07:41;6.13;;;5.83;;
3943;SDS011;1986;52.546;13.428;2023-01-08T15:10:28;9.00;;;7.90;;
3943;SDS011;1986;52.546;13.428;2023-01-08T15:13:02;11.43;;;10.33;;
3943;SDS011;1986;52.546;13.428;2023-01-08T15:15:35;6.83;;;6.53;;
3943;SDS011;1986;52.546;13.428;2023-01-08T15:18:12;6.13;;;6.03;;
3943;SDS011;1986;52.546;13.428;2023-01-08T15:20:40;8.07;;;7.83;;
3943;SDS011;1986;52.546;13.428;2023-01-08T15:23:17;7.43;;;7.33;;
3943;SDS011;1986;52.546;13.428;2023-01-08T15:25:54;8.63;;;8.43;;
3943;SDS011;1986;52.546;13.428;2023-01-08T15:28:22;9.23;;;9.03;;
